createdAt,value
2019-02-18T00:00:25.979Z,6.24
2019-02-18T00:03:56.080Z,6.1
2019-02-18T00:07:26.212Z,6.04
2019-02-18T00:10:56.434Z,6.04
2019-02-18T00:14:26.534Z,6.06
2019-02-18T00:17:56.678Z,6.09
2019-02-18T00:21:26.878Z,6.08
2019-02-18T00:24:57.991Z,6.05
2019-02-18T00:28:28.111Z,5.97
2019-02-18T00:31:58.203Z,5.98
2019-02-18T00:35:28.424Z,5.99
2019-02-18T00:38:58.406Z,6.03
2019-02-18T00:42:28.507Z,5.98
2019-02-18T00:45:58.569Z,5.96
2019-02-18T00:49:28.699Z,5.96
2019-02-18T00:52:58.752Z,5.95
2019-02-18T00:56:28.944Z,6
2019-02-18T00:59:58.966Z,6.01
2019-02-18T01:03:29.090Z,5.99
2019-02-18T01:06:59.140Z,5.95
2019-02-18T01:10:29.220Z,5.87
2019-02-18T01:13:59.340Z,5.77
2019-02-18T01:17:29.453Z,5.57
2019-02-18T01:20:59.451Z,5.6
2019-02-18T01:24:29.529Z,5.63
2019-02-18T01:28:00.688Z,5.64
2019-02-18T01:31:30.723Z,5.7
2019-02-18T01:35:00.751Z,5.71
2019-02-18T01:38:30.893Z,5.73
2019-02-18T01:42:00.864Z,5.72
2019-02-18T01:45:30.946Z,5.69
2019-02-18T01:49:01.278Z,5.6
2019-02-18T01:52:31.339Z,5.56
2019-02-18T01:56:01.361Z,5.65
2019-02-18T01:59:31.493Z,5.68
2019-02-18T02:00:17.313Z,5.67
2019-02-18T02:03:47.505Z,5.54
2019-02-18T02:07:17.606Z,5.32
2019-02-18T02:10:47.718Z,5.18
2019-02-18T02:14:17.869Z,5.27
2019-02-18T02:17:47.980Z,5.34
2019-02-18T02:21:17.982Z,5.48
2019-02-18T02:24:48.134Z,5.58
2019-02-18T02:28:19.375Z,5.64
2019-02-18T02:31:49.494Z,5.69
2019-02-18T02:35:19.721Z,5.65
2019-02-18T02:38:49.782Z,5.68
2019-02-18T02:42:19.903Z,5.64
2019-02-18T02:45:49.993Z,5.6
2019-02-18T02:49:20.085Z,5.6
2019-02-18T02:52:50.146Z,5.62
2019-02-18T02:56:20.292Z,5.64
2019-02-18T02:59:50.256Z,5.68
2019-02-18T03:03:20.304Z,5.69
2019-02-18T03:06:50.339Z,5.71
2019-02-18T03:10:20.475Z,5.76
2019-02-18T03:13:50.497Z,5.8
2019-02-18T03:17:20.602Z,5.66
2019-02-18T03:20:50.710Z,5.32
2019-02-18T03:24:20.752Z,5.14
2019-02-18T03:27:54.587Z,5.11
2019-02-18T03:31:27.074Z,4.95
2019-02-18T03:34:57.107Z,4.76
2019-02-18T03:38:31.399Z,4.67
2019-02-18T03:42:02.159Z,4.7
2019-02-18T03:45:32.280Z,4.6
2019-02-18T03:49:02.225Z,4.42
2019-02-18T03:52:32.291Z,4.38
2019-02-18T03:56:02.405Z,4.33
2019-02-18T03:59:32.757Z,4.34
2019-02-18T04:00:17.194Z,4.33
2019-02-18T04:03:47.223Z,4.22
2019-02-18T04:07:17.283Z,4.26
2019-02-18T04:10:47.311Z,4.33
2019-02-18T04:14:17.393Z,4.33
2019-02-18T04:17:47.414Z,4.36
2019-02-18T04:21:17.422Z,4.36
2019-02-18T04:24:47.411Z,4.33
2019-02-18T04:28:17.489Z,4.36
2019-02-18T04:31:48.620Z,4.37
2019-02-18T04:35:18.713Z,4.38
2019-02-18T04:38:54.187Z,4.39
2019-02-18T04:42:24.643Z,4.4
2019-02-18T04:45:54.746Z,4.44
2019-02-18T04:49:24.818Z,4.34
2019-02-18T04:52:54.879Z,4.27
2019-02-18T04:56:25.031Z,4.22
2019-02-18T04:59:55.093Z,4.2
2019-02-18T05:03:25.060Z,4.22
2019-02-18T05:06:55.036Z,4.25
2019-02-18T05:10:25.044Z,4.27
2019-02-18T05:13:55.069Z,4.29
2019-02-18T05:17:25.203Z,4.33
2019-02-18T05:20:55.317Z,4.31
2019-02-18T05:24:25.387Z,4.34
2019-02-18T05:27:55.601Z,4.42
2019-02-18T05:31:25.767Z,4.54
2019-02-18T05:34:56.782Z,4.58
2019-02-18T05:38:26.880Z,4.71
2019-02-18T05:41:56.861Z,4.86
2019-02-18T05:45:27.063Z,4.97
2019-02-18T05:48:57.214Z,5.1
2019-02-18T05:52:27.266Z,5.2
2019-02-18T05:55:57.394Z,5.31
2019-02-18T05:59:27.479Z,5.45
2019-02-18T06:00:17.919Z,5.47
2019-02-18T06:03:48.000Z,5.64
2019-02-18T06:07:18.057Z,5.67
2019-02-18T06:10:48.174Z,5.79
2019-02-18T06:14:18.225Z,5.94
2019-02-18T06:17:48.327Z,5.86
2019-02-18T06:21:18.470Z,5.99
2019-02-18T06:24:48.490Z,6.18
2019-02-18T06:28:18.622Z,6.37
2019-02-18T06:31:48.784Z,6.54
2019-02-18T06:35:19.055Z,6.68
2019-02-18T06:38:48.995Z,6.84
2019-02-18T06:42:19.089Z,6.97
2019-02-18T06:46:01.142Z,7.11
2019-02-18T06:49:32.252Z,7.19
2019-02-18T06:53:02.274Z,7.31
2019-02-18T06:57:57.756Z,7.33
2019-02-18T07:01:33.198Z,7.36
2019-02-18T07:05:42.199Z,7.38
2019-02-18T07:09:18.142Z,7.43
2019-02-18T07:12:50.984Z,7.55
2019-02-18T07:16:21.075Z,7.59
2019-02-18T07:19:51.176Z,7.64
2019-02-18T07:23:21.258Z,7.78
2019-02-18T07:26:51.460Z,7.87
2019-02-18T07:30:21.551Z,8.01
2019-02-18T07:33:51.643Z,8.08
2019-02-18T07:37:22.645Z,8.14
2019-02-18T07:40:52.687Z,8.27
2019-02-18T07:44:22.668Z,8.46
2019-02-18T07:47:53.011Z,8.58
2019-02-18T07:51:23.052Z,8.75
2019-02-18T07:54:53.164Z,8.84
2019-02-18T07:58:23.215Z,8.89
2019-02-18T08:00:17.126Z,8.95
2019-02-18T08:03:47.188Z,8.95
2019-02-18T08:07:17.460Z,9.01
2019-02-18T08:19:35.516Z,9.3
2019-02-18T08:23:05.497Z,9.36
2019-02-18T08:26:35.570Z,9.36
2019-02-18T08:30:07.298Z,9.25
2019-02-18T08:33:37.369Z,9.2
2019-02-18T08:37:07.498Z,9.25
2019-02-18T08:40:38.757Z,9.37
2019-02-18T08:44:08.844Z,9.55
2019-02-18T08:47:38.911Z,9.71
2019-02-18T08:51:08.951Z,9.92
2019-02-18T08:54:39.065Z,10.06
2019-02-18T08:58:09.142Z,10.1
2019-02-18T09:01:39.287Z,10.14
2019-02-18T09:05:09.524Z,10.29
2019-02-18T09:08:39.607Z,10.47
2019-02-18T09:12:09.733Z,10.7
2019-02-18T09:15:39.826Z,10.94
2019-02-18T09:19:09.856Z,11.08
2019-02-18T09:23:50.123Z,11.14
2019-02-18T09:27:20.229Z,11.27
2019-02-18T09:30:51.632Z,11.33
2019-02-18T09:34:21.666Z,11.43
2019-02-18T09:37:51.811Z,11.47
2019-02-18T09:41:22.918Z,11.52
2019-02-18T09:44:53.100Z,11.6
2019-02-18T09:48:23.422Z,11.8
2019-02-18T09:51:53.556Z,12.05
2019-02-18T09:55:23.655Z,12.29
2019-02-18T09:58:53.720Z,12.5
2019-02-18T10:00:17.098Z,12.6
2019-02-18T10:03:47.250Z,12.86
2019-02-18T10:07:17.352Z,13.08
2019-02-18T10:10:55.447Z,13.17
2019-02-18T10:14:26.349Z,13.21
2019-02-18T10:17:56.428Z,13.42
2019-02-18T10:21:26.620Z,13.56
2019-02-18T10:24:56.632Z,13.77
2019-02-18T10:28:26.804Z,14.01
2019-02-18T10:31:56.906Z,14.29
2019-02-18T10:35:26.981Z,14.39
2019-02-18T10:38:57.030Z,14.62
2019-02-18T10:42:28.122Z,14.73
2019-02-18T10:45:58.166Z,14.84
2019-02-18T10:49:28.486Z,14.88
2019-02-18T10:52:58.570Z,15.25
2019-02-18T10:56:28.780Z,15.72
2019-02-18T10:59:59.377Z,15.99
2019-02-18T11:03:29.633Z,16.25
2019-02-18T11:06:59.786Z,16.43
2019-02-18T11:10:29.878Z,16.82
2019-02-18T11:13:59.920Z,17.04
2019-02-18T11:17:38.674Z,17.48
2019-02-18T11:21:09.262Z,17.78
2019-02-18T11:24:39.396Z,17.93
2019-02-18T11:28:09.487Z,18.06
2019-02-18T11:31:39.702Z,18.56
2019-02-18T11:35:09.923Z,18.4
2019-02-18T11:38:40.185Z,18.41
2019-02-18T11:42:10.207Z,18.42
2019-02-18T11:45:41.310Z,18.35
2019-02-18T11:49:11.352Z,18.5
2019-02-18T11:52:41.616Z,18.72
2019-02-18T11:56:11.745Z,18.77
2019-02-18T11:59:41.887Z,18.96
2019-02-18T12:00:16.299Z,18.91
2019-02-18T12:03:50.066Z,18.96
2019-02-18T12:07:45.971Z,19.04
2019-02-18T12:11:16.085Z,18.92
2019-02-18T12:14:46.159Z,18.78
2019-02-18T12:18:16.472Z,18.63
2019-02-18T12:21:47.003Z,18.76
2019-02-18T12:25:17.215Z,18.71
2019-02-18T12:28:47.399Z,18.45
2019-02-18T12:32:17.563Z,18.74
2019-02-18T12:35:47.750Z,18.83
2019-02-18T12:39:17.822Z,18.69
2019-02-18T12:42:48.113Z,18.95
2019-02-18T12:46:18.394Z,18.84
2019-02-18T12:49:50.926Z,18.68
2019-02-18T12:53:21.145Z,18.47
2019-02-18T15:07:24.564Z,15.64
2019-02-18T15:10:54.670Z,15.33
2019-02-18T15:14:24.872Z,15.01
2019-02-18T15:17:55.232Z,14.64
2019-02-18T15:21:25.539Z,14.48
2019-02-18T15:24:55.540Z,14.24
2019-02-18T15:28:25.680Z,13.84
2019-02-18T15:31:55.786Z,13.5
2019-02-18T15:35:25.903Z,13.31
2019-02-18T15:38:56.058Z,13.02
2019-02-18T15:42:26.269Z,12.63
2019-02-18T15:45:56.309Z,12.13
2019-02-18T15:49:27.355Z,11.87
2019-02-18T15:52:57.364Z,11.78
2019-02-18T15:56:27.556Z,11.66
2019-02-18T15:59:57.602Z,11.49
2019-02-18T16:00:18.662Z,11.46
2019-02-18T16:03:49.138Z,11.3
2019-02-18T16:07:19.464Z,11.19
2019-02-18T16:10:49.629Z,11.02
2019-02-18T16:14:19.734Z,10.9
2019-02-18T16:17:49.800Z,10.78
2019-02-18T16:21:19.816Z,10.67
2019-02-18T16:24:49.922Z,10.53
2019-02-18T16:28:20.028Z,10.38
2019-02-18T16:31:50.314Z,10.29
2019-02-18T16:35:20.409Z,10.2
2019-02-18T16:38:50.667Z,10.13
2019-02-18T16:42:20.741Z,10.02
2019-02-18T16:45:50.766Z,10
2019-02-18T16:49:21.292Z,9.95
2019-02-18T16:52:52.438Z,9.86
2019-02-18T16:56:22.604Z,9.74
2019-02-18T16:59:52.639Z,9.62
2019-02-18T17:03:22.745Z,9.48
2019-02-18T17:06:53.011Z,9.3
2019-02-18T17:10:23.356Z,9.19
2019-02-18T17:13:53.522Z,9.09
2019-02-18T17:17:23.748Z,9.03
2019-02-18T17:20:53.803Z,8.99
2019-02-18T17:24:23.899Z,8.95
2019-02-18T17:27:53.980Z,8.88
2019-02-18T17:31:23.960Z,8.81
2019-02-18T17:34:54.166Z,8.73
2019-02-18T17:38:24.263Z,8.69
2019-02-18T17:41:54.396Z,8.66
2019-02-18T17:45:24.482Z,8.64
2019-02-18T17:48:54.649Z,8.61
2019-02-18T17:52:24.775Z,8.6
2019-02-18T17:55:55.789Z,8.58
2019-02-18T17:59:25.824Z,8.56
2019-02-18T18:00:17.165Z,8.55
2019-02-18T18:03:47.179Z,8.55
2019-02-18T18:07:17.315Z,8.51
2019-02-18T18:10:47.539Z,8.48
2019-02-18T18:14:17.627Z,8.41
2019-02-18T18:17:47.716Z,8.41
2019-02-18T18:21:17.801Z,8.39
2019-02-18T18:24:47.933Z,8.35
2019-02-18T18:28:18.138Z,8.28
2019-02-18T18:31:48.294Z,8.21
2019-02-18T18:35:18.340Z,8.22
2019-02-18T18:38:48.367Z,8.16
2019-02-18T18:42:18.931Z,8.11
2019-02-18T18:45:49.356Z,8.1
2019-02-18T18:49:19.393Z,8.09
2019-02-18T18:52:49.444Z,8.08
2019-02-18T18:56:20.393Z,8.15
2019-02-18T18:59:50.439Z,8.11
2019-02-18T19:03:20.675Z,8.12
2019-02-18T19:06:50.873Z,8.12
2019-02-18T19:10:20.985Z,8.14
2019-02-18T19:13:51.092Z,8.07
2019-02-18T19:17:21.167Z,8.02
2019-02-18T19:20:51.332Z,8.08
2019-02-18T19:24:21.358Z,8.04
2019-02-18T19:27:51.448Z,7.96
2019-02-18T19:31:21.559Z,7.9
2019-02-18T19:34:51.541Z,7.82
2019-02-18T19:38:22.010Z,7.78
2019-02-18T19:41:52.416Z,7.78
2019-02-18T19:45:22.518Z,7.73
2019-02-18T19:48:52.678Z,7.67
2019-02-18T19:52:22.782Z,7.62
2019-02-18T19:55:52.998Z,7.6
2019-02-18T19:59:23.981Z,7.59
2019-02-18T20:00:16.659Z,7.57
2019-02-18T20:03:46.718Z,7.56
2019-02-18T20:07:16.821Z,7.6
2019-02-18T20:10:46.920Z,7.56
2019-02-18T20:14:17.085Z,7.43
2019-02-18T20:17:47.141Z,7.45
2019-02-18T20:21:17.127Z,7.44
2019-02-18T20:24:47.231Z,7.35
2019-02-18T20:28:17.217Z,7.33
2019-02-18T20:31:47.272Z,7.35
2019-02-18T20:35:17.468Z,7.35
2019-02-18T20:38:47.594Z,7.32
2019-02-18T20:42:17.649Z,7.38
2019-02-18T20:45:47.765Z,7.37
2019-02-18T20:49:17.811Z,7.37
2019-02-18T20:52:48.381Z,7.29
2019-02-18T20:56:18.845Z,7.34
2019-02-18T20:59:49.848Z,7.29
2019-02-18T21:03:19.844Z,7.3
2019-02-18T21:06:49.948Z,7.3
2019-02-18T21:10:19.967Z,7.29
2019-02-18T21:13:50.027Z,7.21
2019-02-18T21:17:20.118Z,7.21
2019-02-18T21:20:51.272Z,7.15
2019-02-18T21:24:21.467Z,7.13
2019-02-18T21:27:51.671Z,7.13
2019-02-18T21:31:21.759Z,7.12
2019-02-18T21:34:51.874Z,7.15
2019-02-18T21:38:21.928Z,7.18
2019-02-18T21:41:52.105Z,7.14
2019-02-18T21:45:22.149Z,7.05
2019-02-18T21:48:52.345Z,7.01
2019-02-18T21:52:22.410Z,6.95
2019-02-18T21:55:52.437Z,6.93
2019-02-18T21:59:22.821Z,6.88
2019-02-18T22:00:19.480Z,6.9
2019-02-18T22:03:49.606Z,6.88
2019-02-18T22:07:19.691Z,6.79
2019-02-18T22:10:50.166Z,6.79
2019-02-18T22:14:20.573Z,6.8
2019-02-18T22:17:50.998Z,6.83
2019-02-18T22:21:21.040Z,6.75
2019-02-18T22:24:51.128Z,6.74
2019-02-18T22:28:21.154Z,6.76
2019-02-18T22:31:51.367Z,6.73
2019-02-18T22:35:21.376Z,6.73
2019-02-18T22:38:51.492Z,6.69
2019-02-18T22:42:21.586Z,6.67
2019-02-18T22:45:51.632Z,6.63
2019-02-18T22:49:21.727Z,6.64
2019-02-18T22:52:51.843Z,6.67
2019-02-18T22:56:21.848Z,6.62
2019-02-18T22:59:51.934Z,6.6
2019-02-18T23:03:22.980Z,6.57
2019-02-18T23:06:53.115Z,6.62
2019-02-18T23:10:23.114Z,6.62
2019-02-18T23:13:53.248Z,6.62
2019-02-18T23:17:23.312Z,6.54
2019-02-18T23:20:53.357Z,6.49
2019-02-18T23:24:23.433Z,6.46
2019-02-18T23:27:53.488Z,6.54
2019-02-18T23:31:23.615Z,6.52
2019-02-18T23:34:53.619Z,6.5
2019-02-18T23:38:23.705Z,6.51
2019-02-18T23:41:53.772Z,6.47
2019-02-18T23:45:23.792Z,6.48
2019-02-18T23:48:53.986Z,6.48
2019-02-18T23:52:24.023Z,6.54
2019-02-18T23:55:54.117Z,6.53
2019-02-18T23:59:24.173Z,6.5
